CW1461 Weather Reports


Display with metric or nautical units.
time (UTC)temp
F
wind
direction
speed
MPH
gust
MPH
rain 1hr
in
rain 24hr
in
rain mn
in
humidity
%
barometer
mb
20170726104110 62 172 6.0 13.0 0.06 0.06 0.06 91 999.3
20170726103110 62 155 5.0 13.0 0.04 0.05 0.05 91 999.6
20170726095110 62 149 4.0 14.0 0.02 0.02 0.02 91 1000.3
20170726094110 62 148 3.0 13.0 0.01 0.01 0.01 91 1000.4
20170726093113 62 182 4.0 12.0 0.01 0.01 0.01 91 1000.6
20170726092111 61 173 5.0 10.0 0.01 0.01 0.01 91 1000.9
20170726091111 61 138 4.0 10.0 0.01 0.01 0.01 91 1001.1
20170726090110 61 150 5.0 9.0 0.00 0.00 0.00 91 1001.3
20170726084111 61 128 4.0 12.0 0.00 0.00 0.00 90 1001.7
20170726083110 60 134 3.0 9.0 0.00 0.00 0.00 90 1001.9
20170726082110 60 147 5.0 12.0 0.00 0.00 0.00 90 1002.3
20170726080110 60 168 2.0 7.0 0.00 0.00 0.00 89 1002.6
20170726075111 59 200 2.0 8.0 0.00 0.00 0.00 89 1002.7
20170726074111 59 86 3.0 9.0 0.00 0.00 0.00 89 1002.7
20170726073111 59 122 3.0 9.0 0.00 0.00 0.00 89 1002.9
20170726072111 59 185 2.0 6.0 0.00 0.00 0.00 90 1003.2
20170726071111 59 160 3.0 9.0 0.00 0.00 0.00 89 1003.4
20170726065111 59 171 5.0 7.0 0.00 0.00 0.00 90 1003.6
20170726064110 58 187 4.0 8.0 0.00 0.00 0.00 90 1003.8
20170726063110 58 163 2.0 9.0 0.00 0.00 0.00 90 1004.0
20170726062111 58 141 2.0 6.0 0.00 0.00 0.00 91 1004.2
20170726061110 58 164 5.0 10.0 0.00 0.00 0.00 92 1004.4
20170726060111 58 156 2.0 3.0 0.00 0.00 0.00 92 1004.6
20170726055110 57 146 1.0 7.0 0.00 0.00 0.00 92 1004.8
20170726054111 57 153 2.0 8.0 0.00 0.00 0.00 93 1004.8
20170726053110 57 160 2.0 5.0 0.00 0.00 0.00 93 1005.1
20170726052110 57 177 2.0 5.0 0.00 0.00 0.00 94 1005.3
20170726051110 56 167 2.0 7.0 0.00 0.00 0.00 94 1005.5
20170726050111 56 174 3.0 8.0 0.00 0.00 0.00 94 1005.6
20170726045111 54 163 1.0 3.0 0.00 0.00 0.00 94 1005.7
20170726042110 54 65 0.0 0.0 0.00 0.00 0.00 93 1006.0
20170726041110 53 65 0.0 0.0 0.00 0.00 0.00 93 1006.2
20170726035111 53 65 0.0 0.0 0.00 0.00 0.00 93 1006.3
20170726034110 53 65 0.0 0.0 0.00 0.00 0.00 92 1006.5
20170726033110 53 65 0.0 0.0 0.00 0.00 0.00 92 1006.8
20170726032110 53 65 0.0 0.0 0.00 0.00 0.00 92 1007.0
20170726031110 53 65 0.0 0.0 0.00 0.00 0.00 92 1007.2
20170726030110 53 65 0.0 0.0 0.00 0.00 0.00 92 1007.4
20170726025111 53 65 0.0 0.0 0.00 0.00 0.00 92 1007.5
20170726024110 53 65 0.0 0.0 0.00 0.00 0.00 92 1007.6
20170726023110 53 65 0.0 0.0 0.00 0.00 0.00 92 1007.8
20170726021110 53 65 0.0 0.0 0.00 0.00 0.00 92 1007.9
20170726015110 53 65 0.0 0.0 0.00 0.00 0.00 91 1008.4
20170726014110 53 65 0.0 2.0 0.00 0.00 0.00 91 1008.6
20170726013110 53 65 1.0 2.0 0.00 0.00 0.00 91 1008.7
20170726012111 53 65 1.0 2.0 0.00 0.00 0.00 91 1008.9
20170726011111 53 65 0.0 1.0 0.00 0.00 0.00 90 1009.2
20170726010111 53 65 0.0 0.0 0.00 0.00 0.00 90 1009.4
20170726005111 53 65 0.0 0.0 0.00 0.00 0.00 90 1009.4
20170726004110 54 65 0.0 0.0 0.00 0.00 0.00 90 1009.5
20170726000110 54 65 0.0 1.0 0.00 0.00 0.00 90 1010.0
20170725234110 54 65 0.0 1.0 0.00 0.00 0.00 90 1010.3
20170725233111 54 65 0.0 1.0 0.00 0.00 0.00 89 1010.5
20170725232111 54 65 0.0 1.0 0.00 0.00 0.00 88 1010.6
20170725230111 54 64 0.0 2.0 0.00 0.00 0.00 87 1010.9
20170725225110 54 66 0.0 0.0 0.00 0.00 0.00 87 1011.1
20170725224110 55 66 0.0 1.0 0.00 0.00 0.00 86 1011.1
20170725221110 56 66 0.0 1.0 0.00 0.00 0.00 86 1011.2
20170725220111 56 66 0.0 2.0 0.00 0.00 0.00 86 1011.2
20170725214111 57 66 0.0 1.0 0.00 0.00 0.00 86 1011.4
20170725213110 57 66 0.0 1.0 0.00 0.00 0.00 85 1011.4
20170725212111 57 66 0.0 2.0 0.00 0.00 0.00 85 1011.4
20170725211110 57 67 1.0 3.0 0.00 0.00 0.00 85 1011.5
20170725210111 57 38 2.0 3.0 0.00 0.00 0.00 84 1011.6
20170725204111 57 88 0.0 3.0 0.00 0.00 0.00 83 1011.7
20170725202111 58 71 1.0 5.0 0.00 0.00 0.00 81 1011.7
20170725201110 58 90 2.0 7.0 0.00 0.00 0.00 81 1011.7
20170725195111 58 84 3.0 7.0 0.00 0.00 0.00 81 1011.9
20170725194111 59 68 3.0 6.0 0.00 0.00 0.00 80 1012.0
20170725193111 59 103 2.0 7.0 0.00 0.00 0.00 80 1012.0
20170725192110 59 99 2.0 8.0 0.00 0.00 0.00 78 1012.1
20170725191111 60 72 1.0 6.0 0.00 0.00 0.00 78 1012.3
20170725190111 60 102 1.0 6.0 0.00 0.00 0.00 77 1012.3
20170725185125 61 34 1.0 3.0 0.00 0.00 0.00 77 1012.4
20170725184110 61 105 1.0 5.0 0.00 0.00 0.00 76 1012.5
20170725183110 61 83 2.0 7.0 0.00 0.00 0.00 74 1012.4
20170725182110 62 72 1.0 5.0 0.00 0.00 0.00 73 1012.5
20170725180110 63 92 1.0 6.0 0.00 0.00 0.00 71 1012.8
20170725175125 63 117 4.0 7.0 0.00 0.00 0.00 70 1012.8
20170725174111 64 82 2.0 5.0 0.00 0.00 0.00 71 1012.9
20170725173110 63 36 1.0 5.0 0.00 0.00 0.00 71 1012.9
20170725171110 63 55 2.0 9.0 0.00 0.00 0.00 70 1013.1
20170725170111 64 36 2.0 8.0 0.00 0.00 0.00 68 1013.2
20170725165111 66 59 1.0 7.0 0.00 0.00 0.00 68 1013.2
20170725164111 66 84 3.0 8.0 0.00 0.00 0.00 67 1013.2
20170725163110 66 342 2.0 8.0 0.00 0.00 0.00 68 1013.3
20170725162110 66 98 1.0 7.0 0.00 0.00 0.00 68 1013.5
20170725161110 66 44 2.0 7.0 0.00 0.00 0.00 67 1013.6
20170725155111 66 33 3.0 7.0 0.00 0.00 0.00 67 1013.9
20170725154111 66 52 2.0 7.0 0.00 0.00 0.00 69 1013.9
20170725153110 66 105 2.0 9.0 0.00 0.00 0.00 68 1014.0
20170725151111 66 65 1.0 6.0 0.00 0.00 0.00 69 1014.1
20170725150117 66 63 1.0 7.0 0.00 0.00 0.00 72 1014.0
20170725145110 65 100 2.0 6.0 0.00 0.00 0.00 72 1014.1
20170725143111 64 109 2.0 5.0 0.00 0.00 0.00 72 1014.2
20170725142111 64 103 3.0 9.0 0.00 0.00 0.00 73 1014.4
20170725141111 63 106 2.0 6.0 0.00 0.00 0.00 75 1014.3
20170725140111 63 86 2.0 6.0 0.00 0.00 0.00 76 1014.4
20170725135111 63 91 2.0 6.0 0.00 0.00 0.00 77 1014.5
20170725133111 62 52 2.0 5.0 0.00 0.00 0.00 77 1014.8
20170725132111 62 95 2.0 7.0 0.00 0.00 0.00 77 1014.9
20170725131111 62 80 3.0 6.0 0.00 0.00 0.00 77 1014.9
20170725130111 62 93 2.0 3.0 0.00 0.00 0.00 77 1014.9
20170725125111 62 73 1.0 3.0 0.00 0.00 0.00 78 1015.0
20170725122110 61 86 2.0 3.0 0.00 0.00 0.00 80 1015.3
20170725121110 61 100 2.0 5.0 0.00 0.00 0.00 79 1015.3
20170725120111 61 106 2.0 3.0 0.00 0.00 0.00 79 1015.3
20170725115111 61 82 2.0 5.0 0.00 0.00 0.00 78 1015.3
20170725114110 61 91 1.0 5.0 0.00 0.00 0.00 77 1015.2
20170725113110 61 53 1.0 3.0 0.00 0.00 0.00 77 1015.3
20170725112111 61 14 1.0 3.0 0.00 0.00 0.00 78 1015.3
20170725111110 61 315 1.0 3.0 0.00 0.00 0.00 78 1015.4
20170725110111 60 241 1.0 3.0 0.00 0.00 0.00 79 1015.4
20170725105111 60 310 2.0 5.0 0.00 0.00 0.00 79 1015.4